Details From CYVP - Kuujjuaq
To CYPX - Puvirnituq
Flight Number -
Tags Standard
Created
Modified
Stats Distance 299 nm / 553 km
Max Altitude 35,000 ft / 10,668 m
Waypoints 4
Social Downloads 22
Likes 0
Share

Download

Looking for another format? Having issues loading an existing format? Contact us
Advertisement - Login to hide

Notes

None

Route

CYVP YTQ YPX CYPX

ID Type Via Altitude (ft/m) Position (lat/lon) Dist (leg/tot) Name
O CYVP APT - 129 / 39 58.09042 / -68.42736 - / 0 nm
YTQ NDB - 35,000 / 10,668 58.67023 / -69.94749 59 / 59 nm TASIUJAQ NDB
YPX NDB - 74 / 23 60.04389 / -77.27944 238 / 298 nm
O CYPX APT - 74 / 23 60.05042 / -77.28694 0 / 298 nm PUVIRNITUQ

Altitude Profile

Advertisement - Login to hide

Weather


0- 5 10 15 20 25 30 35+ Temperature / °C

Clouds and Precipitation
Forecast for 2021-01-28 06:00 UTC. Updated 4 hours ago

Ground ~20,000 ft ~40,000 ft Winds

CYVP

Details ICAO CYVP (YVP)
Name KUUJJUAQ
Region Canada
Timezone America/Montreal (UTC-5.0)
Stats Elevation 129 ft / 39 m (AMSL)
Location 58.096900° -68.423300°
Runways 2
Magnetic Variation 21.864° W

METAR

CYVP 280700Z 29003KT 260V330 12SM -SN OVC005 M15/M17 A3014 RMK ST8 SLP212

Decode

TAF

TAF AMD CYVP 280544Z 2806/2818 33010KT 5SM -SN BKN004 OVC012 TEMPO 2806/2815 P6SM NSW OVC015 FM281500 35010G20KT 5SM -SN BKN008 OVC012 TEMPO 2815/2818 P6SM NSW OVC015 RMK NXT FCST BY 281200Z

Decode

Departure Runways

ID Width Length Bearing (true/mag) Surface Threshold Overrun Markings Lighting
07 150 ft / 46 m 6,002 ft / 1,829 m 43.43° / 65.29° ASPHALT 0 ft / 0 m 0 ft / 0 m APP EDGE THRESHOLD SSALR
13 150 ft / 46 m 5,000 ft / 1,524 m 102.88° / 124.74° GRAVEL 0 ft / 0 m 0 ft / 0 m VISUAL EDGE THRESHOLD
25 150 ft / 46 m 6,002 ft / 1,829 m 223.45° / 245.31° ASPHALT 0 ft / 0 m 0 ft / 0 m APP EDGE THRESHOLD REIL-OMNI
31 150 ft / 46 m 5,000 ft / 1,524 m 282.90° / 304.76° GRAVEL 0 ft / 0 m 0 ft / 0 m VISUAL EDGE THRESHOLD REIL-OMNI

CYPX

Details ICAO CYPX (YPX)
Name PUVIRNITUQ
Region Canada
Timezone America/Montreal (UTC-5.0)
Stats Elevation 74 ft / 23 m (AMSL)
Location 60.050400° -77.286900°
Runways 1
Magnetic Variation 19.155° W

METAR

CYPX 280700Z AUTO 00000KT 9SM CLR M28/M31 A3023 RMK SLP244

Decode

TAF

TAF CYPX 280539Z 2806/2818 VRB03KT P6SM SKC BECMG 2810/2812 33008KT RMK FCST BASED ON AUTO OBS. NXT FCST BY 281200Z

Decode

Destination Runways

ID Width Length Bearing (true/mag) Surface Threshold Overrun Markings Lighting
01 100 ft / 30 m 4,971 ft / 1,515 m 343.44° / 2.60° GRAVEL 0 ft / 0 m 0 ft / 0 m VISUAL EDGE THRESHOLD REIL-OMNI
19 100 ft / 30 m 4,971 ft / 1,515 m 163.44° / 182.59° GRAVEL 0 ft / 0 m 0 ft / 0 m VISUAL EDGE THRESHOLD TDZ REIL-OMNI